Latest Weather Observations for Woolshed

IDQ60801

Issued at 9:05 am EST Thursday 27 November 2014 (issued every 30 minutes, with the page automatically refreshed every 10 minutes)

About weather observations | Map of weather stations | Latest weather observations for QLD | Other Formats
Station Details ID: 033307 Name: WOOLSHED Lat: -19.42 Lon: 146.54 Height: 556.04 m
Data from the previous 72 hours. | See also: Recent months at Woolshed
Date/Time
EST
Temp
°C
App
Temp
°C
Dew
Point
Rel
Hum
%
Delta-T
°C
Wind Press
QNH
hPa
Press
MSL
hPa
Rain
since 9 am
mm
Dir
 
Spd
km/h
Gust
km/h
Spd
kts
Gust
kts
27/09:00am 24.4 25.9 18.1 68 4.0 E 7 15 4 8 1016.7 1013.4 3.0
27/08:30am 23.5 25.2 18.4 73 3.3 ESE 7 17 4 9 1017.1 1013.8 3.0
27/08:00am 23.3 25.2 19.0 77 2.8 E 7 13 4 7 1017.0 1013.7 3.0
27/07:30am 21.8 23.6 18.8 83 1.9 E 7 11 4 6 1017.0 1013.7 3.0
27/07:00am 21.7 23.8 18.9 84 1.8 ESE 6 11 3 6 1016.9 1013.6 3.0
27/06:30am 21.4 23.5 19.0 86 1.5 E 6 9 3 5 1016.7 1013.4 3.0
27/06:00am 20.4 22.8 18.9 91 1.0 E 4 9 2 5 1016.1 1012.8 3.0
27/05:30am 20.4 22.4 18.7 90 1.1 E 6 11 3 6 1016.0 1012.7 3.0
27/05:00am 20.8 22.8 19.1 90 1.1 E 7 13 4 7 1015.6 1012.3 3.0
27/04:30am 20.7 22.6 19.0 90 1.1 ENE 7 13 4 7 1015.4 1012.1 3.0
27/04:00am 20.6 22.5 18.5 88 1.3 ENE 6 11 3 6 1015.0 1011.7 3.0
27/03:30am 20.9 22.9 19.2 90 1.1 ENE 7 13 4 7 1014.8 1011.5 3.0
27/03:00am 20.8 22.9 19.3 91 1.0 ENE 7 15 4 8 1014.7 1011.4 3.0
27/02:30am 20.8 22.6 19.5 92 0.8 ENE 9 19 5 10 1014.6 1011.2 3.0
27/02:00am 20.8 22.2 19.5 92 0.8 ENE 11 19 6 10 1014.4 1011.0 3.0
27/01:30am 20.9 22.6 19.4 91 1.0 ENE 9 15 5 8 1014.7 1011.4 3.0
27/01:00am 20.9 22.5 19.2 90 1.1 ENE 9 17 5 9 1015.1 1011.8 3.0
27/12:30am 21.0 22.6 19.1 89 1.2 ENE 9 17 5 9 1015.2 1011.9 3.0
27/12:00am 20.9 23.0 19.4 91 1.0 ENE 7 17 4 9 1015.5 1012.2 3.0
 
Date/Time
EST
Temp
°C
App
Temp
°C
Dew
Point
Rel
Hum
%
Delta-T
°C
Wind Press
QNH
hPa
Press
MSL
hPa
Rain
since 9 am
mm
Dir
 
Spd
km/h
Gust
km/h
Spd
kts
Gust
kts
26/11:30pm 21.1 23.0 19.7 92 0.9 ENE 9 19 5 10 1015.9 1012.6 3.0
26/11:00pm 21.0 23.2 19.7 92 0.8 ENE 7 15 4 8 1016.0 1012.7 3.0
26/10:30pm 21.4 23.4 19.9 91 1.0 NE 9 19 5 10 1016.0 1012.7 3.0
26/10:00pm 21.6 23.7 20.2 92 0.9 ENE 9 15 5 8 1016.1 1012.8 3.0
26/09:30pm 22.0 24.4 20.8 93 0.8 ENE 9 17 5 9 1015.9 1012.6 3.0
26/09:00pm 22.2 25.5 21.4 95 0.5 NE 6 11 3 6 1015.9 1012.6 3.0
26/08:30pm 22.3 25.0 21.3 94 0.7 NE 9 17 5 9 1015.7 1012.4 3.0
26/08:00pm 22.5 24.3 21.1 92 0.9 ENE 13 26 7 14 1015.5 1012.2 3.0
26/07:30pm 22.6 24.8 21.2 92 0.9 NE 11 17 6 9 1015.4 1012.1 3.0
26/07:00pm 22.7 24.7 20.8 89 1.3 NNE 11 19 6 10 1015.3 1012.0 3.0
26/06:30pm 22.9 25.1 20.4 86 1.7 NE 9 17 5 9 1015.0 1011.7 3.0
26/06:00pm 23.3 25.8 21.0 87 1.5 NE 9 20 5 11 1014.9 1011.6 3.0
26/05:30pm 23.4 25.1 20.9 86 1.7 NE 13 24 7 13 1014.6 1011.2 3.0
26/05:00pm 24.1 26.4 20.6 81 2.3 NE 9 19 5 10 1014.4 1011.0 3.0
26/04:30pm 24.4 26.4 20.7 80 2.5 NE 11 22 6 12 1014.1 1010.8 3.0
26/04:00pm 24.7 25.9 20.0 75 3.1 NNE 13 24 7 13 1013.8 1010.5 3.0
26/03:30pm 25.0 26.4 20.3 75 3.1 NNE 13 24 7 13 1013.8 1010.5 3.0
26/03:00pm 25.6 27.1 19.7 70 3.9 NE 11 22 6 12 1014.2 1010.9 3.0
26/02:30pm 25.8 27.0 19.0 66 4.4 NE 11 22 6 12 1014.4 1011.0 3.0
26/02:00pm 25.8 26.3 19.2 67 4.3 NE 15 30 8 16 1014.4 1011.0 3.0
26/01:30pm 26.4 27.6 20.0 68 4.3 NE 13 26 7 14 1014.6 1011.2 3.0
26/01:00pm 26.5 27.1 19.4 65 4.7 NE 15 28 8 15 1014.8 1011.5 3.0
26/12:30pm 26.4 27.3 20.0 68 4.3 NE 15 30 8 16 1015.0 1011.7 3.0
26/12:00pm 25.5 26.1 20.3 73 3.5 NE 17 30 9 16 1015.2 1011.9 3.0
26/11:30am 25.2 26.8 20.7 76 3.0 NE 13 26 7 14 1015.4 1012.1 3.0
26/11:00am 24.6 27.2 21.9 85 1.8 NE 11 24 6 13 1015.6 1012.3 3.0
26/10:30am 25.0 26.8 21.1 79 2.6 NE 13 26 7 14 1015.7 1012.4 0.2
26/10:00am 27.6 29.0 20.4 65 4.8 NNE 13 26 7 14 1015.8 1012.5 0.0
26/09:30am 26.1 27.7 19.2 65 4.5 NE 9 22 5 12 1015.7 1012.4 0.0
26/09:00am 26.6 28.5 19.7 66 4.6 ENE 9 17 5 9 1015.7 1012.4 0.0
26/08:30am 24.6 25.9 19.4 73 3.4 NE 11 19 6 10 1015.7 1012.4 0.0
26/08:00am 25.1 26.4 19.2 70 3.9 NE 11 22 6 12 1015.6 1012.3 0.0
26/07:30am 23.9 26.2 19.8 78 2.7 NE 7 15 4 8 1015.5 1012.2 0.0
26/07:00am 22.9 25.3 20.1 84 1.8 ENE 7 13 4 7 1015.5 1012.2 0.0
26/06:30am 22.4 24.9 20.3 88 1.4 ENE 7 17 4 9 1015.0 1011.7 0.0
26/06:00am 22.0 24.2 20.5 91 1.0 ENE 9 19 5 10 1014.8 1011.5 0.0
26/05:30am 21.6 23.8 20.4 93 0.8 E 9 17 5 9 1014.5 1011.1 0.0
26/05:00am 21.6 24.3 20.2 92 0.9 E 6 11 3 6 1014.2 1010.9 0.0
26/04:30am 21.7 24.2 20.3 92 0.9 ENE 7 11 4 6 1014.0 1010.7 0.0
26/04:00am 21.6 24.4 20.4 93 0.8 ENE 6 11 3 6 1013.7 1010.4 0.0
26/03:30am 21.7 24.4 20.7 94 0.7 NE 7 15 4 8 1013.7 1010.4 0.0
26/03:00am 21.8 24.6 20.8 94 0.7 ENE 7 13 4 7 1013.8 1010.5 0.0
26/02:30am 21.9 24.9 20.9 94 0.7 ENE 6 11 3 6 1013.9 1010.6 0.0
26/02:00am 22.1 24.8 20.6 91 1.0 ENE 7 19 4 10 1014.0 1010.7 0.0
26/01:30am 22.0 24.8 20.8 93 0.8 ENE 7 11 4 6 1014.2 1010.9 0.0
26/01:00am 21.7 24.3 20.5 93 0.8 NE 7 11 4 6 1014.1 1010.8 0.0
26/12:30am 22.1 24.5 20.9 93 0.8 ENE 9 15 5 8 1014.5 1011.1 0.0
26/12:00am 22.0 24.3 20.6 92 0.9 ENE 9 17 5 9 1014.8 1011.5 0.0
 
Date/Time
EST
Temp
°C
App
Temp
°C
Dew
Point
Rel
Hum
%
Delta-T
°C
Wind Press
QNH
hPa
Press
MSL
hPa
Rain
since 9 am
mm
Dir
 
Spd
km/h
Gust
km/h
Spd
kts
Gust
kts
25/11:30pm 21.7 24.0 20.7 94 0.7 NE 9 15 5 8 1015.2 1011.9 0.0
25/11:00pm 21.8 24.1 20.6 93 0.8 NE 9 19 5 10 1015.4 1012.1 0.0
25/10:30pm 21.8 24.6 20.8 94 0.7 NE 7 15 4 8 1015.6 1012.3 0.0
25/10:00pm 21.8 24.6 20.8 94 0.7 NE 7 11 4 6 1015.7 1012.4 0.0
25/09:30pm 21.9 24.6 20.7 93 0.8 NNE 7 15 4 8 1015.6 1012.3 0.0
25/09:00pm 21.9 24.5 20.5 92 0.9 NNE 7 15 4 8 1015.5 1012.2 0.0
25/08:30pm 22.0 24.6 20.5 91 1.0 NNE 7 13 4 7 1015.3 1012.0 0.0
25/08:00pm 22.1 24.8 20.2 89 1.3 N 6 11 3 6 1015.0 1011.7 0.0
25/07:30pm 21.9 24.1 19.5 86 1.6 N 7 19 4 10 1014.8 1011.5 0.0
25/07:00pm 22.2 23.9 18.6 80 2.3 NNE 7 19 4 10 1014.2 1010.9 0.0
25/06:30pm 22.8 24.0 18.3 76 2.9 NNE 9 17 5 9 1013.8 1010.5 0.0
25/06:00pm 24.1 25.1 18.7 72 3.5 NNE 11 20 6 11 1013.6 1010.3 0.0
25/05:30pm 25.2 25.3 16.6 59 5.4 NNE 11 19 6 10 1013.3 1010.0 0.0
25/05:00pm 25.9 26.2 17.0 58 5.7 NNE 11 22 6 12 1013.3 1010.0 0.0
25/04:30pm 26.1 26.2 17.5 59 5.5 NNE 13 24 7 13 1013.3 1010.0 0.0
25/04:00pm 26.8 27.1 17.8 57 5.8 NNE 13 22 7 12 1013.2 1009.9 0.0
25/03:30pm 27.6 27.7 18.3 57 6.1 NNE 15 24 8 13 1013.5 1010.2 0.0
25/03:00pm 27.1 27.4 17.8 56 6.0 NNE 13 22 7 12 1013.5 1010.2 0.0
25/02:30pm 27.4 28.9 19.7 63 5.1 N 11 22 6 12 1013.9 1010.6 0.0
25/02:00pm 27.2 28.2 19.5 62 5.1 NNE 13 20 7 11 1014.1 1010.8 0.0
25/01:30pm 28.5 29.4 19.2 57 6.2 NNE 13 24 7 13 1014.5 1011.1 0.0
25/01:00pm 28.8 30.1 19.4 56 6.2 NNE 11 28 6 15 1014.5 1011.1 0.0
25/12:30pm 28.0 28.3 18.7 57 6.1 NNE 15 26 8 14 1014.8 1011.5 0.0
25/12:00pm 28.3 29.3 18.7 56 6.3 NE 11 26 6 14 1015.1 1011.8 0.0
25/11:30am 26.9 27.5 17.7 57 5.9 NNE 11 20 6 11 1015.4 1012.1 0.0
25/11:00am 27.6 28.3 18.0 55 6.2 N 11 20 6 11 1015.7 1012.4 0.0
25/10:30am 26.8 27.4 17.8 57 5.8 NNE 11 24 6 13 1016.0 1012.7 0.0
25/10:00am 26.3 27.1 17.4 58 5.7 NE 9 15 5 8 1016.1 1012.8 0.0
25/09:30am 26.7 28.1 18.6 61 5.3 N 9 17 5 9 1016.1 1012.8 0.0
25/09:00am 25.8 27.1 19.4 67 4.2 N 11 20 6 11 1016.0 1012.7 0.0
25/08:30am 24.6 25.7 18.8 70 3.8 NNE 11 20 6 11 1016.3 1013.0 0.0
25/08:00am 23.7 25.8 20.2 81 2.3 ENE 9 15 5 8 1016.1 1012.8 0.0
25/07:30am 22.1 24.5 20.0 88 1.4 NE 7 15 4 8 1015.8 1012.5 0.0
25/07:00am 21.8 23.7 19.7 88 1.4 NE 9 17 5 9 1015.6 1012.3 0.0
25/06:30am 21.5 23.4 19.8 90 1.1 ENE 9 15 5 8 1015.3 1012.0 0.0
25/06:00am 21.1 23.2 20.1 94 0.7 ENE 9 15 5 8 1015.1 1011.8 0.0
25/05:30am 20.9 23.4 19.9 94 0.7 NE 6 11 3 6 1014.8 1011.5 0.0
25/05:00am 20.7 23.0 19.9 95 0.5 NE 7 13 4 7 1014.6 1011.2 0.0
25/04:30am 20.8 22.8 20.0 95 0.5 NE 9 15 5 8 1014.5 1011.1 0.0
25/04:00am 20.7 22.6 19.7 94 0.7 NE 9 20 5 11 1014.2 1010.9 0.0
25/03:30am 20.9 22.5 19.9 94 0.7 NE 11 19 6 10 1014.2 1010.9 0.0
25/03:00am 20.9 22.3 19.6 92 0.8 ENE 11 20 6 11 1014.2 1010.9 0.0
25/02:30am 21.0 21.7 19.7 92 0.8 NE 15 28 8 15 1014.4 1011.0 0.0
25/02:00am 21.1 22.4 20.1 94 0.7 ENE 13 24 7 13 1014.5 1011.1 0.0
25/01:30am 21.4 22.9 20.6 95 0.5 ENE 13 26 7 14 1014.7 1011.4 0.0
25/01:00am 21.5 23.1 20.8 96 0.5 NE 13 22 7 12 1015.2 1011.9 0.0
25/12:30am 21.5 23.7 20.5 94 0.7 NE 9 20 5 11 1015.6 1012.3 0.0
25/12:00am 21.6 24.2 20.4 93 0.8 NE 7 15 4 8 1016.4 1013.1 0.0
 
Date/Time
EST
Temp
°C
App
Temp
°C
Dew
Point
Rel
Hum
%
Delta-T
°C
Wind Press
QNH
hPa
Press
MSL
hPa
Rain
since 9 am
mm
Dir
 
Spd
km/h
Gust
km/h
Spd
kts
Gust
kts
24/11:30pm 21.6 23.3 20.1 91 1.0 NE 11 22 6 12 1016.5 1013.2 0.0
24/11:00pm 21.8 24.1 20.6 93 0.8 NE 9 15 5 8 1016.7 1013.4 0.0
24/10:30pm 21.8 23.7 20.6 93 0.8 NE 11 19 6 10 1016.7 1013.4 0.0
24/10:00pm 21.9 24.1 20.5 92 0.9 NE 9 17 5 9 1016.6 1013.3 0.0
24/09:30pm 21.7 24.2 20.3 92 0.9 NE 7 15 4 8 1016.6 1013.3 0.0
24/09:00pm 21.7 23.8 20.2 91 1.0 NE 9 15 5 8 1016.3 1013.0 0.0
24/08:30pm 22.1 23.5 20.4 90 1.1 NE 13 20 7 11 1016.0 1012.7 0.0
24/08:00pm 22.3 23.8 20.6 90 1.1 NE 13 22 7 12 1015.7 1012.4 0.0
24/07:30pm 22.4 24.4 20.7 90 1.1 NE 11 22 6 12 1015.2 1011.9 0.0
24/07:00pm 22.5 24.1 20.0 86 1.6 NNE 11 22 6 12 1015.0 1011.7 0.0
24/06:30pm 23.0 24.8 20.3 85 1.8 NNE 11 20 6 11 1014.8 1011.5 0.0
24/06:00pm 23.6 25.4 20.3 82 2.2 NNE 11 20 6 11 1014.2 1010.9 0.0
24/05:30pm 23.8 25.3 20.5 82 2.2 N 13 24 7 13 1013.9 1010.6 0.0
24/05:00pm 24.3 26.2 20.6 80 2.5 NNE 11 24 6 13 1013.8 1010.5 0.0
24/04:30pm 24.6 25.7 20.5 78 2.7 NNE 15 28 8 15 1013.7 1010.4 0.0
24/04:00pm 26.1 28.8 21.3 75 3.2 NNE 9 20 5 11 1013.7 1010.4 0.0
24/03:30pm 24.8 26.0 19.8 74 3.3 NE 13 28 7 15 1014.0 1010.7 0.0
24/03:00pm 26.1 26.8 19.7 68 4.2 NE 15 32 8 17 1014.1 1010.8 0.0
24/02:30pm 26.6 27.8 20.0 67 4.4 NE 13 22 7 12 1014.6 1011.2 0.0
24/02:00pm 26.9 28.1 19.8 65 4.7 N 13 26 7 14 1014.9 1011.6 0.0
24/01:30pm 28.2 29.7 19.7 60 5.7 NNE 11 26 6 14 1015.1 1011.8 0.0
24/01:00pm 27.6 28.1 18.3 57 6.1 NNE 13 26 7 14 1015.5 1012.2 0.0
24/12:30pm 26.5 26.7 17.6 58 5.7 NNE 13 24 7 13 1015.8 1012.5 0.0
24/12:00pm 28.5 29.8 19.4 57 6.0 NNE 11 22 6 12 1016.1 1012.8 0.0
24/11:30am 26.1 27.1 19.5 67 4.4 NNE 13 28 7 15 1016.4 1013.1 0.0
24/11:00am 26.1 27.2 19.7 68 4.2 NNE 13 24 7 13 1016.7 1013.4 0.0
24/10:30am 25.4 25.9 19.3 69 4.0 NE 15 26 8 14 1017.0 1013.7 0.0
24/10:00am 25.3 26.6 19.4 70 3.9 NE 11 22 6 12 1017.1 1013.8 0.0
24/09:30am 26.1 27.5 19.5 67 4.4 NE 11 30 6 16 1017.2 1013.9 0.0

Other Formats:

Comma delimited format used in spreadsheet applications
http://www.bom.gov.au/fwo/IDQ60801/IDQ60801.95293.axf

JavaScript Object Notation format (JSON) in row-major order
http://www.bom.gov.au/fwo/IDQ60801/IDQ60801.95293.json